createdAt,value
2018-08-24T00:01:27.797Z,88.62
2018-08-24T00:04:12.700Z,89.77
2018-08-24T00:06:57.593Z,89.48
2018-08-24T00:09:42.422Z,89.64
2018-08-24T00:12:27.306Z,89.01
2018-08-24T00:15:12.057Z,88.04
2018-08-24T00:17:56.798Z,87.52
2018-08-24T00:20:41.618Z,88.80
2018-08-24T00:23:26.459Z,89.02
2018-08-24T00:26:11.309Z,89.47
2018-08-24T00:28:56.110Z,90.22
2018-08-24T00:31:41.501Z,90.13
2018-08-24T00:34:26.363Z,89.97
2018-08-24T00:37:11.152Z,90.37
2018-08-24T00:39:55.987Z,89.92
2018-08-24T00:42:40.852Z,89.74
2018-08-24T00:45:25.735Z,89.57
2018-08-24T00:48:10.673Z,89.88
2018-08-24T00:50:55.493Z,89.96
2018-08-24T00:53:40.866Z,90.15
2018-08-24T00:56:25.594Z,89.71
2018-08-24T00:59:10.454Z,89.88
2018-08-24T01:01:55.297Z,90.68
2018-08-24T01:04:40.175Z,90.32
2018-08-24T01:07:25.077Z,91.33
2018-08-24T01:10:29.149Z,90.79
2018-08-24T01:13:15.310Z,91.05
2018-08-24T01:16:03.880Z,91.68
2018-08-24T01:18:48.710Z,91.55
2018-08-24T01:21:33.484Z,91.60
2018-08-24T01:24:18.655Z,91.59
2018-08-24T01:27:04.696Z,91.46
2018-08-24T01:29:49.573Z,91.02
2018-08-24T01:32:34.424Z,91.28
2018-08-24T01:35:19.296Z,91.90
2018-08-24T01:38:04.143Z,91.01
2018-08-24T01:40:48.958Z,91.50
2018-08-24T01:43:33.790Z,92.35
2018-08-24T01:46:18.871Z,92.69
2018-08-24T01:49:03.725Z,91.83
2018-08-24T01:51:48.537Z,92.44
2018-08-24T01:54:33.437Z,92.15
2018-08-24T01:57:18.300Z,92.78
2018-08-24T02:00:03.145Z,92.52
2018-08-24T02:02:47.932Z,92.95
2018-08-24T02:05:32.700Z,92.70
2018-08-24T02:08:17.562Z,92.75
2018-08-24T02:11:02.478Z,93.14
2018-08-24T02:13:52.343Z,92.45
2018-08-24T02:16:38.149Z,92.28
2018-08-24T02:19:28.027Z,92.41
2018-08-24T02:22:16.742Z,92.70
2018-08-24T02:25:01.541Z,92.09
2018-08-24T02:27:46.423Z,92.07
2018-08-24T02:30:31.361Z,92.32
2018-08-24T02:33:16.102Z,92.40
2018-08-24T02:36:00.953Z,93.18
2018-08-24T02:38:45.808Z,92.50
2018-08-24T02:41:30.725Z,92.24
2018-08-24T02:44:15.704Z,92.99
2018-08-24T02:47:00.576Z,92.58
2018-08-24T02:49:45.412Z,93.03
2018-08-24T02:52:30.489Z,92.67
2018-08-24T02:55:15.343Z,92.42
2018-08-24T02:58:00.265Z,93.00
2018-08-24T03:00:45.127Z,92.81
2018-08-24T03:03:29.942Z,93.27
2018-08-24T03:06:15.128Z,92.90
2018-08-24T03:08:59.996Z,92.36
2018-08-24T03:11:44.799Z,92.55
2018-08-24T03:14:29.679Z,92.26
2018-08-24T03:17:19.563Z,92.80
2018-08-24T03:20:04.467Z,92.54
2018-08-24T03:22:49.293Z,92.71
2018-08-24T03:25:34.108Z,92.80
2018-08-24T03:28:18.885Z,92.87
2018-08-24T03:31:03.689Z,93.18
2018-08-24T03:33:48.601Z,93.37
2018-08-24T03:36:33.609Z,93.81
2018-08-24T03:39:18.575Z,94.07
2018-08-24T03:42:03.448Z,93.82
2018-08-24T03:44:48.279Z,93.96
2018-08-24T03:47:33.177Z,93.23
2018-08-24T03:50:18.107Z,93.11
2018-08-24T03:53:02.956Z,93.66
2018-08-24T03:55:47.741Z,93.98
2018-08-24T03:58:32.767Z,93.95
2018-08-24T04:01:17.556Z,94.18
2018-08-24T04:04:02.459Z,93.70
2018-08-24T04:06:47.590Z,93.50
2018-08-24T04:09:32.350Z,94.04
2018-08-24T04:12:17.227Z,94.12
2018-08-24T04:15:02.029Z,93.53
2018-08-24T04:17:46.870Z,94.20
2018-08-24T04:20:31.700Z,94.30
2018-08-24T04:23:16.559Z,93.86
2018-08-24T04:26:01.379Z,94.77
2018-08-24T04:28:46.216Z,94.85
2018-08-24T04:31:31.021Z,95.12
2018-08-24T04:34:15.978Z,94.76
2018-08-24T04:37:00.809Z,94.09
2018-08-24T04:39:45.659Z,94.84
2018-08-24T04:42:30.477Z,94.71
2018-08-24T04:45:15.429Z,94.68
2018-08-24T04:48:00.327Z,94.56
2018-08-24T04:50:45.190Z,93.86
2018-08-24T04:53:30.041Z,93.03
2018-08-24T04:56:14.844Z,92.88
2018-08-24T04:59:00.396Z,92.68
2018-08-24T05:01:45.250Z,92.53
2018-08-24T05:04:30.132Z,91.78
2018-08-24T05:07:14.970Z,91.55
2018-08-24T05:09:59.857Z,90.52
2018-08-24T05:12:44.842Z,90.35
2018-08-24T05:15:29.696Z,89.91
2018-08-24T05:18:14.508Z,89.37
2018-08-24T05:20:59.397Z,90.07
2018-08-24T05:23:44.225Z,89.69
2018-08-24T05:26:29.188Z,88.36
2018-08-24T05:29:14.069Z,88.36
2018-08-24T05:31:58.898Z,87.94
2018-08-24T05:34:43.758Z,85.67
2018-08-24T05:37:28.609Z,85.82
2018-08-24T05:40:13.424Z,85.06
2018-08-24T05:42:58.336Z,85.75
2018-08-24T05:45:43.138Z,85.33
2018-08-24T05:48:28.095Z,85.31
2018-08-24T05:51:13.055Z,85.04
2018-08-24T05:53:57.918Z,86.01
2018-08-24T05:56:42.771Z,85.30
2018-08-24T05:59:27.697Z,85.96
2018-08-24T06:02:12.459Z,86.21
2018-08-24T06:04:57.358Z,86.42
2018-08-24T06:07:42.216Z,86.65
2018-08-24T06:10:26.983Z,84.31
2018-08-24T06:13:16.200Z,85.67
2018-08-24T06:16:00.958Z,85.80
2018-08-24T06:18:45.821Z,83.62
2018-08-24T06:21:30.706Z,85.39
2018-08-24T06:24:15.479Z,84.88
2018-08-24T06:27:00.372Z,84.87
2018-08-24T06:29:45.254Z,83.24
2018-08-24T06:32:30.046Z,80.42
2018-08-24T06:35:14.937Z,82.50
2018-08-24T06:37:59.888Z,82.09
2018-08-24T06:40:44.921Z,79.08
2018-08-24T06:43:29.984Z,80.24
2018-08-24T06:46:14.818Z,78.00
2018-08-24T06:48:59.741Z,76.76
2018-08-24T06:51:44.647Z,76.47
2018-08-24T06:54:29.522Z,76.85
2018-08-24T06:57:14.409Z,75.37
2018-08-24T06:59:59.242Z,75.87
2018-08-24T07:02:44.086Z,75.95
2018-08-24T07:05:29.098Z,77.06
2018-08-24T07:08:13.938Z,73.38
2018-08-24T07:10:58.786Z,73.16
2018-08-24T07:13:43.552Z,71.20
2018-08-24T07:16:28.297Z,70.19
2018-08-24T07:19:13.173Z,69.76
2018-08-24T07:21:58.004Z,68.95
2018-08-24T07:24:43.019Z,69.47
2018-08-24T07:27:27.905Z,68.15
2018-08-24T07:30:12.692Z,69.45
2018-08-24T07:32:57.547Z,65.33
2018-08-24T07:35:42.425Z,66.16
2018-08-24T07:38:27.241Z,63.47
2018-08-24T07:41:12.036Z,63.15
2018-08-24T07:43:56.936Z,62.46
2018-08-24T07:46:42.079Z,62.59
2018-08-24T07:49:26.938Z,62.79
2018-08-24T07:52:11.778Z,60.34
2018-08-24T07:54:56.647Z,60.44
2018-08-24T07:57:41.467Z,58.53
2018-08-24T08:00:26.307Z,57.97
2018-08-24T08:03:11.219Z,58.74
2018-08-24T08:05:56.060Z,58.26
2018-08-24T08:08:40.900Z,57.14
2018-08-24T08:11:26.044Z,54.81
2018-08-24T08:14:11.033Z,52.05
2018-08-24T08:16:59.496Z,52.70
2018-08-24T08:19:44.413Z,52.46
2018-08-24T08:22:29.321Z,51.38
2018-08-24T08:25:14.250Z,50.92
2018-08-24T08:27:59.027Z,49.52
2018-08-24T08:30:43.887Z,53.01
2018-08-24T08:33:28.825Z,52.55
2018-08-24T08:36:13.672Z,52.84
2018-08-24T08:38:58.501Z,51.83
2018-08-24T08:41:43.660Z,51.29
2018-08-24T08:44:28.530Z,51.49
2018-08-24T08:47:13.420Z,52.81
2018-08-24T08:49:58.284Z,52.24
2018-08-24T08:52:43.281Z,51.85
2018-08-24T08:55:28.172Z,49.72
2018-08-24T08:58:12.986Z,49.25
2018-08-24T09:00:57.881Z,48.42
2018-08-24T09:03:42.783Z,46.60
2018-08-24T09:06:27.583Z,47.14
2018-08-24T09:09:12.351Z,47.57
2018-08-24T09:11:57.274Z,48.99
2018-08-24T09:14:42.481Z,48.27
2018-08-24T09:17:32.579Z,48.52
2018-08-24T09:20:22.597Z,51.02
2018-08-24T09:23:12.607Z,50.91
2018-08-24T09:26:02.561Z,53.86
2018-08-24T09:28:48.205Z,53.16
2018-08-24T09:31:35.604Z,53.39
2018-08-24T09:34:20.503Z,54.46
2018-08-24T09:37:09.518Z,56.46
2018-08-24T09:39:54.461Z,57.36
2018-08-24T09:42:39.255Z,57.49
2018-08-24T09:45:24.152Z,57.45
2018-08-24T09:48:14.234Z,55.27
2018-08-24T09:51:04.233Z,56.71
2018-08-24T09:53:54.068Z,55.63
2018-08-24T09:56:40.191Z,53.90
2018-08-24T09:59:25.145Z,54.99
2018-08-24T10:02:25.425Z,54.46
2018-08-24T10:05:15.357Z,55.24
2018-08-24T10:08:05.042Z,54.96
2018-08-24T10:10:49.837Z,56.87
2018-08-24T10:13:34.633Z,59.45
2018-08-24T10:16:19.528Z,62.24
2018-08-24T10:19:04.496Z,61.07
2018-08-24T10:21:49.299Z,59.18
2018-08-24T10:24:34.157Z,58.92
2018-08-24T10:27:18.953Z,57.49
2018-08-24T10:30:04.013Z,57.50
2018-08-24T10:32:48.895Z,56.35
2018-08-24T10:35:34.023Z,54.04
2018-08-24T10:38:18.975Z,54.58
2018-08-24T10:41:03.850Z,55.17
2018-08-24T10:43:48.624Z,58.72
2018-08-24T10:46:33.512Z,59.74
2018-08-24T10:49:18.441Z,59.79
2018-08-24T10:52:03.359Z,59.14
2018-08-24T10:54:48.240Z,58.55
2018-08-24T10:57:33.048Z,57.42
2018-08-24T11:00:18.083Z,59.57
2018-08-24T11:03:02.975Z,58.81
2018-08-24T11:05:47.891Z,57.67
2018-08-24T11:08:32.808Z,58.15
2018-08-24T11:11:17.927Z,58.33
2018-08-24T11:14:02.853Z,58.07
2018-08-24T11:16:47.825Z,57.39
2018-08-24T11:19:32.632Z,55.69
2018-08-24T11:22:17.537Z,57.00
2018-08-24T11:25:02.413Z,56.56
2018-08-24T11:27:47.260Z,57.07
2018-08-24T11:30:32.117Z,57.56
2018-08-24T11:33:17.088Z,57.88
2018-08-24T11:36:02.016Z,59.21
2018-08-24T11:38:46.853Z,59.37
2018-08-24T11:41:31.701Z,59.45
2018-08-24T11:44:16.574Z,58.87
2018-08-24T11:47:01.438Z,57.65
2018-08-24T11:49:46.616Z,57.03
2018-08-24T11:52:31.456Z,58.02
2018-08-24T11:55:16.407Z,58.12
2018-08-24T11:58:01.152Z,59.43
2018-08-24T12:00:46.023Z,57.23
2018-08-24T12:03:30.856Z,59.45
2018-08-24T12:06:15.634Z,59.15
2018-08-24T12:09:00.791Z,57.99
2018-08-24T12:11:45.578Z,57.86
2018-08-24T12:14:30.286Z,57.46
2018-08-24T12:17:19.117Z,58.63
2018-08-24T12:20:04.013Z,59.05
2018-08-24T12:22:48.999Z,57.96
2018-08-24T12:25:33.864Z,56.44
2018-08-24T12:28:18.690Z,57.22
2018-08-24T12:31:03.715Z,55.99
2018-08-24T12:33:48.578Z,53.35
2018-08-24T12:36:33.506Z,52.79
2018-08-24T12:39:18.315Z,53.26
2018-08-24T12:42:03.154Z,54.84
2018-08-24T12:44:48.038Z,54.89
2018-08-24T12:47:32.915Z,53.79
2018-08-24T12:50:18.311Z,53.00
2018-08-24T12:53:03.146Z,52.87
2018-08-24T12:55:48.037Z,52.28
2018-08-24T12:58:32.906Z,51.31
2018-08-24T13:01:18.020Z,50.22
2018-08-24T13:04:02.841Z,50.94
2018-08-24T13:06:47.756Z,50.63
2018-08-24T13:09:32.641Z,49.66
2018-08-24T13:12:17.518Z,50.14
2018-08-24T13:15:02.377Z,49.67
2018-08-24T13:17:47.098Z,49.12
2018-08-24T13:20:32.005Z,46.27
2018-08-24T13:23:16.972Z,47.02
2018-08-24T13:26:01.802Z,49.39
2018-08-24T13:28:46.731Z,49.49
2018-08-24T13:31:31.611Z,48.63
2018-08-24T13:34:16.440Z,47.53
2018-08-24T13:37:01.412Z,46.02
2018-08-24T13:39:46.272Z,46.83
2018-08-24T13:42:31.163Z,47.09
2018-08-24T13:45:16.158Z,49.38
2018-08-24T13:48:00.978Z,48.09
2018-08-24T13:50:45.925Z,48.61
2018-08-24T13:53:30.968Z,49.20
2018-08-24T13:56:16.244Z,48.30
2018-08-24T13:59:01.126Z,48.56
2018-08-24T14:01:46.054Z,49.02
2018-08-24T14:04:31.104Z,49.69
2018-08-24T14:07:16.020Z,50.89
2018-08-24T14:10:00.901Z,50.12
2018-08-24T14:12:45.652Z,49.71
2018-08-24T14:15:30.467Z,47.92
2018-08-24T14:18:18.344Z,49.06
2018-08-24T14:21:03.304Z,50.07
2018-08-24T14:23:48.174Z,51.25
2018-08-24T14:26:33.296Z,47.92
2018-08-24T14:29:18.116Z,47.85
2018-08-24T14:32:02.994Z,48.34
2018-08-24T14:34:47.962Z,47.57
2018-08-24T14:37:32.839Z,48.01
2018-08-24T14:40:18.340Z,48.32
2018-08-24T14:43:03.169Z,47.21
2018-08-24T14:45:47.974Z,47.81
2018-08-24T14:48:32.988Z,47.60
2018-08-24T14:51:17.893Z,49.50
2018-08-24T14:54:02.750Z,48.76
2018-08-24T14:56:47.594Z,48.97
2018-08-24T14:59:32.431Z,50.33
2018-08-24T15:02:17.493Z,49.16
2018-08-24T15:05:02.541Z,50.31
2018-08-24T15:07:47.422Z,50.43
2018-08-24T15:10:32.311Z,50.38
2018-08-24T15:13:17.114Z,48.75
2018-08-24T15:16:01.984Z,48.65
2018-08-24T15:18:46.923Z,49.20
2018-08-24T15:21:31.719Z,50.04
2018-08-24T15:24:16.620Z,51.13
2018-08-24T15:27:02.454Z,50.60
2018-08-24T15:29:47.244Z,50.89
2018-08-24T15:32:32.243Z,51.93
2018-08-24T15:35:17.281Z,52.29
2018-08-24T15:38:02.034Z,52.52
2018-08-24T15:40:46.864Z,52.39
2018-08-24T15:43:31.664Z,52.88
2018-08-24T15:46:16.584Z,53.18
2018-08-24T15:49:01.478Z,53.58
2018-08-24T15:51:46.300Z,53.95
2018-08-24T15:54:31.103Z,54.45
2018-08-24T15:57:15.918Z,54.07
2018-08-24T16:00:01.036Z,55.51
2018-08-24T16:02:45.879Z,54.62
2018-08-24T16:05:30.716Z,54.71
2018-08-24T16:08:15.596Z,55.06
2018-08-24T16:11:00.438Z,55.27
2018-08-24T16:13:45.649Z,55.75
2018-08-24T16:16:30.421Z,55.54
2018-08-24T16:19:15.304Z,55.07
2018-08-24T16:22:00.082Z,55.58
2018-08-24T16:24:44.958Z,55.50
2018-08-24T16:27:33.490Z,56.09
2018-08-24T16:30:18.355Z,56.38
2018-08-24T16:33:03.176Z,56.05
2018-08-24T16:35:48.072Z,57.16
2018-08-24T16:38:33.297Z,57.82
2018-08-24T16:41:18.208Z,57.28
2018-08-24T16:44:02.995Z,57.72
2018-08-24T16:46:47.889Z,57.56
2018-08-24T16:49:32.690Z,57.81
2018-08-24T16:52:17.536Z,58.62
2018-08-24T16:55:02.421Z,58.42
2018-08-24T16:57:48.418Z,59.29
2018-08-24T17:00:33.333Z,59.98
2018-08-24T17:03:18.228Z,58.47
2018-08-24T17:06:03.039Z,58.59
2018-08-24T17:08:47.863Z,58.83
2018-08-24T17:11:32.677Z,59.49
2018-08-24T17:14:17.578Z,58.23
2018-08-24T17:17:02.444Z,59.28
2018-08-24T17:19:47.276Z,58.91
2018-08-24T17:22:32.099Z,59.21
2018-08-24T17:25:16.900Z,58.84
2018-08-24T17:28:01.725Z,59.14
2018-08-24T17:30:46.688Z,60.06
2018-08-24T17:33:31.413Z,59.90
2018-08-24T17:36:16.217Z,59.60
2018-08-24T17:39:01.128Z,60.48
2018-08-24T17:41:46.028Z,60.24
2018-08-24T17:44:30.780Z,61.39
2018-08-24T17:47:15.684Z,60.64
2018-08-24T17:50:00.451Z,60.25
2018-08-24T17:52:45.395Z,61.61
2018-08-24T17:55:30.396Z,60.52
2018-08-24T17:58:15.474Z,61.08
2018-08-24T18:01:00.532Z,61.54
2018-08-24T18:03:45.344Z,60.83
2018-08-24T18:06:30.131Z,61.32
2018-08-24T18:09:14.957Z,61.17
2018-08-24T18:11:59.854Z,62.53
2018-08-24T18:14:44.758Z,62.84
2018-08-24T18:17:29.575Z,62.68
2018-08-24T18:20:14.351Z,62.03
2018-08-24T18:22:59.314Z,62.34
2018-08-24T18:25:44.258Z,62.26
2018-08-24T18:28:29.036Z,62.57
2018-08-24T18:31:14.189Z,62.67
2018-08-24T18:33:59.167Z,62.96
2018-08-24T18:36:44.039Z,64.37
2018-08-24T18:39:28.888Z,63.81
2018-08-24T18:42:13.708Z,63.89
2018-08-24T18:44:58.692Z,64.17
2018-08-24T18:47:43.708Z,63.04
2018-08-24T18:50:28.467Z,63.08
2018-08-24T18:53:13.317Z,63.85
2018-08-24T18:55:58.372Z,64.32
2018-08-24T18:58:43.385Z,63.66
2018-08-24T19:01:28.348Z,64.07
2018-08-24T19:04:13.369Z,62.87
2018-08-24T19:06:58.352Z,63.50
2018-08-24T19:09:43.244Z,63.48
2018-08-24T19:12:29.638Z,64.20
2018-08-24T19:15:14.453Z,63.69
2018-08-24T19:18:04.340Z,63.21
2018-08-24T19:20:54.280Z,63.55
2018-08-24T19:23:39.189Z,65.00
2018-08-24T19:26:24.457Z,65.16
2018-08-24T19:29:14.375Z,65.13
2018-08-24T19:31:59.201Z,64.00
2018-08-24T19:34:44.107Z,65.56
2018-08-24T19:37:29.128Z,65.05
2018-08-24T19:40:19.039Z,67.21
2018-08-24T19:43:03.924Z,67.26
2018-08-24T19:45:49.013Z,69.37
2018-08-24T19:48:39.148Z,72.03
2018-08-24T19:51:24.112Z,74.05
2018-08-24T19:54:09.114Z,75.05
2018-08-24T19:56:54.146Z,75.11
2018-08-24T19:59:39.089Z,73.98
2018-08-24T20:02:24.776Z,75.09
2018-08-24T20:05:10.084Z,75.52
2018-08-24T20:07:59.913Z,75.50
2018-08-24T20:10:44.776Z,74.76
2018-08-24T20:13:29.688Z,75.33
2018-08-24T20:16:19.957Z,72.69
2018-08-24T20:19:05.056Z,72.75
2018-08-24T20:21:49.910Z,73.12
2018-08-24T20:24:34.857Z,73.38
2018-08-24T20:27:19.694Z,73.59
2018-08-24T20:30:04.997Z,74.43
2018-08-24T20:32:50.003Z,72.90
2018-08-24T20:35:35.057Z,73.63
2018-08-24T20:38:20.048Z,72.31
2018-08-24T20:41:04.876Z,71.63
2018-08-24T20:43:49.796Z,69.93
2018-08-24T20:46:34.726Z,69.78
2018-08-24T20:49:20.149Z,68.91
2018-08-24T20:52:05.057Z,70.63
2018-08-24T20:54:49.948Z,70.36
2018-08-24T20:57:34.909Z,71.35
2018-08-24T21:00:20.025Z,71.79
2018-08-24T21:03:04.929Z,72.21
2018-08-24T21:05:49.879Z,72.91
2018-08-24T21:08:34.711Z,74.03
2018-08-24T21:11:19.585Z,74.73
2018-08-24T21:14:04.544Z,75.38
2018-08-24T21:16:49.567Z,77.15
2018-08-24T21:19:34.412Z,78.29
2018-08-24T21:22:19.360Z,78.24
2018-08-24T21:25:04.482Z,80.04
2018-08-24T21:27:49.411Z,81.08
2018-08-24T21:30:34.412Z,82.19
2018-08-24T21:33:19.357Z,81.33
2018-08-24T21:36:04.308Z,82.57
2018-08-24T21:38:49.104Z,82.50
2018-08-24T21:41:34.017Z,83.49
2018-08-24T21:44:18.879Z,84.10
2018-08-24T21:47:04.003Z,84.19
2018-08-24T21:49:48.852Z,83.07
2018-08-24T21:52:33.810Z,84.11
2018-08-24T21:55:18.667Z,82.32
2018-08-24T21:58:03.761Z,82.68
2018-08-24T22:00:48.656Z,83.26
2018-08-24T22:03:33.656Z,82.58
2018-08-24T22:06:18.528Z,81.02
2018-08-24T22:09:03.416Z,81.92
2018-08-24T22:11:48.257Z,82.42
2018-08-24T22:14:33.164Z,82.31
2018-08-24T22:17:18.298Z,83.15
2018-08-24T22:20:03.116Z,83.05
2018-08-24T22:22:47.958Z,82.75
2018-08-24T22:25:32.867Z,81.35
2018-08-24T22:28:17.692Z,82.10
2018-08-24T22:31:02.459Z,81.54
2018-08-24T22:33:47.378Z,81.56
2018-08-24T22:36:32.133Z,82.38
2018-08-24T22:39:16.928Z,81.10
2018-08-24T22:42:01.646Z,80.57
2018-08-24T22:44:46.533Z,81.10
2018-08-24T22:47:31.330Z,80.78
2018-08-24T22:50:16.212Z,81.17
2018-08-24T22:53:01.098Z,80.66
2018-08-24T22:55:45.966Z,79.42
2018-08-24T22:58:30.772Z,79.97
2018-08-24T23:01:15.499Z,79.94
2018-08-24T23:04:00.396Z,77.38
2018-08-24T23:06:45.167Z,77.30
2018-08-24T23:09:30.030Z,77.76
2018-08-24T23:12:14.776Z,78.31
2018-08-24T23:14:59.653Z,78.25
2018-08-24T23:17:44.409Z,76.92
2018-08-24T23:20:29.239Z,76.82
2018-08-24T23:23:14.111Z,76.22
2018-08-24T23:25:58.926Z,78.07
2018-08-24T23:28:43.721Z,77.45
2018-08-24T23:31:28.544Z,77.46
2018-08-24T23:34:13.303Z,77.44
2018-08-24T23:36:58.037Z,76.56
2018-08-24T23:39:42.910Z,76.22
2018-08-24T23:42:27.674Z,76.65
2018-08-24T23:45:12.555Z,76.45
2018-08-24T23:47:57.375Z,76.66
2018-08-24T23:50:42.139Z,76.71
2018-08-24T23:53:26.892Z,77.80
2018-08-24T23:56:11.686Z,79.35
2018-08-24T23:58:56.705Z,80.03
